sensor_id;sensor_type;location;lat;lon;timestamp;P1;durP1;ratioP1;P2;durP2;ratioP2
10463;SDS011;5279;42.048;24.638;2023-08-21T00:01:55;4.70;;;4.30;;
10463;SDS011;5279;42.048;24.638;2023-08-21T00:04:22;4.77;;;4.37;;
10463;SDS011;5279;42.048;24.638;2023-08-21T00:06:49;6.87;;;4.27;;
10463;SDS011;5279;42.048;24.638;2023-08-21T00:09:16;4.10;;;3.80;;
10463;SDS011;5279;42.048;24.638;2023-08-21T00:11:43;4.53;;;4.13;;
10463;SDS011;5279;42.048;24.638;2023-08-21T00:14:12;4.83;;;4.43;;
10463;SDS011;5279;42.048;24.638;2023-08-21T00:16:39;4.70;;;4.30;;
10463;SDS011;5279;42.048;24.638;2023-08-21T00:19:06;4.50;;;4.10;;
10463;SDS011;5279;42.048;24.638;2023-08-21T00:21:33;5.37;;;4.10;;
10463;SDS011;5279;42.048;24.638;2023-08-21T00:24:01;4.63;;;4.23;;
10463;SDS011;5279;42.048;24.638;2023-08-21T00:26:28;7.17;;;3.90;;
10463;SDS011;5279;42.048;24.638;2023-08-21T00:28:55;8.17;;;4.10;;
10463;SDS011;5279;42.048;24.638;2023-08-21T00:31:24;7.10;;;3.90;;
10463;SDS011;5279;42.048;24.638;2023-08-21T00:33:51;4.87;;;4.37;;
10463;SDS011;5279;42.048;24.638;2023-08-21T00:36:18;4.97;;;4.27;;
10463;SDS011;5279;42.048;24.638;2023-08-21T00:38:46;6.60;;;4.20;;
10463;SDS011;5279;42.048;24.638;2023-08-21T00:41:13;5.97;;;4.30;;
10463;SDS011;5279;42.048;24.638;2023-08-21T00:43:41;4.70;;;4.30;;
10463;SDS011;5279;42.048;24.638;2023-08-21T00:46:08;4.43;;;4.03;;
10463;SDS011;5279;42.048;24.638;2023-08-21T00:48:38;4.40;;;4.00;;
10463;SDS011;5279;42.048;24.638;2023-08-21T00:51:05;7.60;;;3.93;;
10463;SDS011;5279;42.048;24.638;2023-08-21T00:53:33;4.63;;;4.20;;
10463;SDS011;5279;42.048;24.638;2023-08-21T00:56:01;4.77;;;3.87;;
10463;SDS011;5279;42.048;24.638;2023-08-21T00:58:29;8.80;;;4.33;;
10463;SDS011;5279;42.048;24.638;2023-08-21T01:00:56;5.77;;;3.90;;
10463;SDS011;5279;42.048;24.638;2023-08-21T01:03:24;6.80;;;4.07;;
10463;SDS011;5279;42.048;24.638;2023-08-21T01:05:53;4.50;;;3.93;;
10463;SDS011;5279;42.048;24.638;2023-08-21T01:08:21;4.93;;;3.90;;
10463;SDS011;5279;42.048;24.638;2023-08-21T01:10:59;4.63;;;4.07;;
10463;SDS011;5279;42.048;24.638;2023-08-21T01:13:34;3.97;;;3.60;;
10463;SDS011;5279;42.048;24.638;2023-08-21T01:16:10;4.67;;;4.20;;
10463;SDS011;5279;42.048;24.638;2023-08-21T01:18:39;4.60;;;3.97;;
10463;SDS011;5279;42.048;24.638;2023-08-21T01:21:10;5.57;;;4.10;;
10463;SDS011;5279;42.048;24.638;2023-08-21T01:23:40;6.17;;;4.60;;
10463;SDS011;5279;42.048;24.638;2023-08-21T01:26:08;10.50;;;4.17;;
10463;SDS011;5279;42.048;24.638;2023-08-21T01:28:36;5.47;;;3.87;;
10463;SDS011;5279;42.048;24.638;2023-08-21T01:31:05;5.43;;;4.10;;
10463;SDS011;5279;42.048;24.638;2023-08-21T01:33:37;4.77;;;3.80;;
10463;SDS011;5279;42.048;24.638;2023-08-21T01:36:11;5.40;;;4.00;;
10463;SDS011;5279;42.048;24.638;2023-08-21T01:38:40;5.73;;;4.13;;
10463;SDS011;5279;42.048;24.638;2023-08-21T01:41:09;4.73;;;3.70;;
10463;SDS011;5279;42.048;24.638;2023-08-21T01:43:36;5.10;;;3.73;;
10463;SDS011;5279;42.048;24.638;2023-08-21T01:46:03;4.30;;;3.90;;
10463;SDS011;5279;42.048;24.638;2023-08-21T01:48:30;7.63;;;4.80;;
10463;SDS011;5279;42.048;24.638;2023-08-21T01:50:58;8.70;;;4.33;;
10463;SDS011;5279;42.048;24.638;2023-08-21T01:53:27;3.97;;;3.67;;
10463;SDS011;5279;42.048;24.638;2023-08-21T01:55:56;5.00;;;4.50;;
10463;SDS011;5279;42.048;24.638;2023-08-21T01:58:23;5.53;;;4.10;;
10463;SDS011;5279;42.048;24.638;2023-08-21T02:00:51;5.37;;;3.93;;
10463;SDS011;5279;42.048;24.638;2023-08-21T02:03:18;5.13;;;4.17;;
10463;SDS011;5279;42.048;24.638;2023-08-21T02:05:46;4.00;;;3.70;;
10463;SDS011;5279;42.048;24.638;2023-08-21T02:08:14;5.10;;;4.40;;
10463;SDS011;5279;42.048;24.638;2023-08-21T02:10:51;4.13;;;3.77;;
10463;SDS011;5279;42.048;24.638;2023-08-21T02:13:20;3.90;;;3.60;;
10463;SDS011;5279;42.048;24.638;2023-08-21T02:15:47;4.67;;;3.60;;
10463;SDS011;5279;42.048;24.638;2023-08-21T02:18:14;4.37;;;3.97;;
10463;SDS011;5279;42.048;24.638;2023-08-21T02:20:42;4.77;;;3.50;;
10463;SDS011;5279;42.048;24.638;2023-08-21T02:23:10;5.63;;;3.83;;
10463;SDS011;5279;42.048;24.638;2023-08-21T02:25:37;5.20;;;3.50;;
10463;SDS011;5279;42.048;24.638;2023-08-21T02:28:04;4.17;;;3.50;;
10463;SDS011;5279;42.048;24.638;2023-08-21T02:30:33;4.17;;;3.80;;
10463;SDS011;5279;42.048;24.638;2023-08-21T02:33:01;4.20;;;3.80;;
10463;SDS011;5279;42.048;24.638;2023-08-21T02:35:28;6.20;;;3.83;;
10463;SDS011;5279;42.048;24.638;2023-08-21T02:37:55;5.40;;;3.73;;
10463;SDS011;5279;42.048;24.638;2023-08-21T02:40:23;5.63;;;4.03;;
10463;SDS011;5279;42.048;24.638;2023-08-21T02:42:50;4.30;;;3.90;;
10463;SDS011;5279;42.048;24.638;2023-08-21T02:45:17;3.80;;;3.40;;
10463;SDS011;5279;42.048;24.638;2023-08-21T02:47:46;4.40;;;4.00;;
10463;SDS011;5279;42.048;24.638;2023-08-21T02:50:13;4.53;;;3.93;;
10463;SDS011;5279;42.048;24.638;2023-08-21T02:52:43;4.47;;;3.87;;
10463;SDS011;5279;42.048;24.638;2023-08-21T02:55:10;3.60;;;3.30;;
10463;SDS011;5279;42.048;24.638;2023-08-21T02:57:37;3.90;;;3.53;;
10463;SDS011;5279;42.048;24.638;2023-08-21T03:00:05;8.97;;;3.67;;
10463;SDS011;5279;42.048;24.638;2023-08-21T03:02:33;5.53;;;3.90;;
10463;SDS011;5279;42.048;24.638;2023-08-21T03:05:03;4.40;;;4.00;;
10463;SDS011;5279;42.048;24.638;2023-08-21T03:07:32;4.80;;;3.80;;
10463;SDS011;5279;42.048;24.638;2023-08-21T03:10:00;4.03;;;3.60;;
10463;SDS011;5279;42.048;24.638;2023-08-21T03:12:27;4.43;;;4.03;;
10463;SDS011;5279;42.048;24.638;2023-08-21T03:14:54;4.87;;;3.93;;
10463;SDS011;5279;42.048;24.638;2023-08-21T03:17:22;5.10;;;3.53;;
10463;SDS011;5279;42.048;24.638;2023-08-21T03:19:49;4.17;;;3.23;;
10463;SDS011;5279;42.048;24.638;2023-08-21T03:22:18;3.83;;;3.53;;
10463;SDS011;5279;42.048;24.638;2023-08-21T03:24:45;4.23;;;3.40;;
10463;SDS011;5279;42.048;24.638;2023-08-21T03:27:14;4.60;;;3.47;;
10463;SDS011;5279;42.048;24.638;2023-08-21T03:29:42;4.63;;;3.70;;
10463;SDS011;5279;42.048;24.638;2023-08-21T03:32:13;3.77;;;3.40;;
10463;SDS011;5279;42.048;24.638;2023-08-21T03:34:41;5.47;;;2.93;;
10463;SDS011;5279;42.048;24.638;2023-08-21T03:37:08;4.23;;;3.50;;
10463;SDS011;5279;42.048;24.638;2023-08-21T03:39:37;4.20;;;3.73;;
10463;SDS011;5279;42.048;24.638;2023-08-21T03:42:05;5.33;;;4.10;;
10463;SDS011;5279;42.048;24.638;2023-08-21T03:44:32;4.33;;;3.23;;
10463;SDS011;5279;42.048;24.638;2023-08-21T03:47:06;3.67;;;3.03;;
10463;SDS011;5279;42.048;24.638;2023-08-21T03:49:33;4.10;;;3.70;;
10463;SDS011;5279;42.048;24.638;2023-08-21T03:52:00;8.43;;;3.67;;
10463;SDS011;5279;42.048;24.638;2023-08-21T03:54:28;3.53;;;3.23;;
10463;SDS011;5279;42.048;24.638;2023-08-21T03:56:56;4.17;;;3.73;;
10463;SDS011;5279;42.048;24.638;2023-08-21T03:59:24;4.77;;;3.90;;
10463;SDS011;5279;42.048;24.638;2023-08-21T04:01:52;4.10;;;3.70;;
10463;SDS011;5279;42.048;24.638;2023-08-21T04:04:20;4.80;;;3.80;;
10463;SDS011;5279;42.048;24.638;2023-08-21T04:06:47;5.93;;;3.30;;
10463;SDS011;5279;42.048;24.638;2023-08-21T04:09:15;3.37;;;3.07;;
10463;SDS011;5279;42.048;24.638;2023-08-21T04:11:42;4.07;;;3.67;;
10463;SDS011;5279;42.048;24.638;2023-08-21T04:14:11;4.33;;;3.37;;
10463;SDS011;5279;42.048;24.638;2023-08-21T04:16:38;3.97;;;3.50;;
10463;SDS011;5279;42.048;24.638;2023-08-21T04:19:06;4.67;;;3.33;;
10463;SDS011;5279;42.048;24.638;2023-08-21T04:21:33;7.40;;;3.40;;
10463;SDS011;5279;42.048;24.638;2023-08-21T04:24:01;9.83;;;4.03;;
10463;SDS011;5279;42.048;24.638;2023-08-21T04:26:28;4.03;;;3.63;;
10463;SDS011;5279;42.048;24.638;2023-08-21T04:28:56;5.93;;;3.30;;
10463;SDS011;5279;42.048;24.638;2023-08-21T04:31:24;4.67;;;3.43;;
10463;SDS011;5279;42.048;24.638;2023-08-21T04:33:52;4.50;;;3.43;;
10463;SDS011;5279;42.048;24.638;2023-08-21T04:36:23;3.80;;;3.17;;
10463;SDS011;5279;42.048;24.638;2023-08-21T04:38:51;4.00;;;3.20;;
10463;SDS011;5279;42.048;24.638;2023-08-21T04:41:18;3.50;;;3.20;;
10463;SDS011;5279;42.048;24.638;2023-08-21T04:43:46;4.93;;;3.30;;
10463;SDS011;5279;42.048;24.638;2023-08-21T04:46:13;3.50;;;3.20;;
10463;SDS011;5279;42.048;24.638;2023-08-21T04:48:42;4.23;;;3.43;;
10463;SDS011;5279;42.048;24.638;2023-08-21T04:51:10;6.27;;;3.40;;
10463;SDS011;5279;42.048;24.638;2023-08-21T04:53:37;4.50;;;3.63;;
10463;SDS011;5279;42.048;24.638;2023-08-21T04:56:04;3.33;;;3.10;;
10463;SDS011;5279;42.048;24.638;2023-08-21T04:58:32;5.60;;;3.50;;
10463;SDS011;5279;42.048;24.638;2023-08-21T05:00:59;4.00;;;3.27;;
10463;SDS011;5279;42.048;24.638;2023-08-21T05:03:26;6.93;;;3.40;;
10463;SDS011;5279;42.048;24.638;2023-08-21T05:05:55;4.10;;;3.70;;
10463;SDS011;5279;42.048;24.638;2023-08-21T05:08:22;3.90;;;3.17;;
10463;SDS011;5279;42.048;24.638;2023-08-21T05:10:53;3.53;;;3.10;;
10463;SDS011;5279;42.048;24.638;2023-08-21T05:13:22;3.57;;;3.27;;
10463;SDS011;5279;42.048;24.638;2023-08-21T05:15:51;4.93;;;3.53;;
10463;SDS011;5279;42.048;24.638;2023-08-21T05:18:19;4.80;;;3.50;;
10463;SDS011;5279;42.048;24.638;2023-08-21T05:20:46;4.07;;;3.33;;
10463;SDS011;5279;42.048;24.638;2023-08-21T05:23:15;3.60;;;3.10;;
10463;SDS011;5279;42.048;24.638;2023-08-21T05:25:43;3.23;;;2.93;;
10463;SDS011;5279;42.048;24.638;2023-08-21T05:28:11;4.43;;;3.50;;
10463;SDS011;5279;42.048;24.638;2023-08-21T05:30:38;3.80;;;2.93;;
10463;SDS011;5279;42.048;24.638;2023-08-21T05:33:06;4.50;;;3.23;;
10463;SDS011;5279;42.048;24.638;2023-08-21T05:35:33;3.47;;;3.17;;
10463;SDS011;5279;42.048;24.638;2023-08-21T05:38:01;6.20;;;3.07;;
10463;SDS011;5279;42.048;24.638;2023-08-21T05:40:29;5.20;;;3.47;;
10463;SDS011;5279;42.048;24.638;2023-08-21T05:42:57;3.87;;;3.27;;
10463;SDS011;5279;42.048;24.638;2023-08-21T05:45:24;4.93;;;3.40;;
10463;SDS011;5279;42.048;24.638;2023-08-21T05:47:51;4.10;;;3.30;;
10463;SDS011;5279;42.048;24.638;2023-08-21T05:50:19;4.50;;;3.33;;
10463;SDS011;5279;42.048;24.638;2023-08-21T05:52:46;4.50;;;3.70;;
10463;SDS011;5279;42.048;24.638;2023-08-21T05:55:14;3.60;;;3.30;;
10463;SDS011;5279;42.048;24.638;2023-08-21T05:57:43;3.77;;;3.23;;
10463;SDS011;5279;42.048;24.638;2023-08-21T06:00:10;4.67;;;3.40;;
10463;SDS011;5279;42.048;24.638;2023-08-21T06:02:39;3.40;;;3.10;;
10463;SDS011;5279;42.048;24.638;2023-08-21T06:05:07;2.90;;;2.70;;
10463;SDS011;5279;42.048;24.638;2023-08-21T06:07:35;4.50;;;3.38;;
10463;SDS011;5279;42.048;24.638;2023-08-21T06:10:03;4.45;;;3.10;;
10463;SDS011;5279;42.048;24.638;2023-08-21T06:12:31;4.53;;;3.10;;
10463;SDS011;5279;42.048;24.638;2023-08-21T06:14:59;3.90;;;3.60;;
10463;SDS011;5279;42.048;24.638;2023-08-21T06:17:27;3.90;;;3.08;;
10463;SDS011;5279;42.048;24.638;2023-08-21T06:19:54;5.32;;;3.10;;
10463;SDS011;5279;42.048;24.638;2023-08-21T06:22:21;4.30;;;2.90;;
10463;SDS011;5279;42.048;24.638;2023-08-21T06:24:49;8.02;;;3.85;;
10463;SDS011;5279;42.048;24.638;2023-08-21T06:27:16;4.10;;;2.80;;
10463;SDS011;5279;42.048;24.638;2023-08-21T06:29:43;3.45;;;3.15;;
10463;SDS011;5279;42.048;24.638;2023-08-21T06:32:12;3.28;;;3.00;;
10463;SDS011;5279;42.048;24.638;2023-08-21T06:34:39;3.22;;;3.03;;
10463;SDS011;5279;42.048;24.638;2023-08-21T06:37:06;3.95;;;3.13;;
10463;SDS011;5279;42.048;24.638;2023-08-21T06:39:34;3.30;;;2.95;;
10463;SDS011;5279;42.048;24.638;2023-08-21T06:42:01;3.47;;;3.00;;
10463;SDS011;5279;42.048;24.638;2023-08-21T06:44:29;4.32;;;3.13;;
10463;SDS011;5279;42.048;24.638;2023-08-21T06:46:56;3.03;;;2.83;;
10463;SDS011;5279;42.048;24.638;2023-08-21T06:49:24;3.35;;;2.88;;
10463;SDS011;5279;42.048;24.638;2023-08-21T06:51:51;4.18;;;3.10;;
10463;SDS011;5279;42.048;24.638;2023-08-21T06:54:18;5.07;;;3.00;;
10463;SDS011;5279;42.048;24.638;2023-08-21T06:56:45;5.00;;;3.22;;
10463;SDS011;5279;42.048;24.638;2023-08-21T06:59:13;3.85;;;2.90;;
10463;SDS011;5279;42.048;24.638;2023-08-21T07:01:40;7.15;;;3.20;;
10463;SDS011;5279;42.048;24.638;2023-08-21T07:04:07;3.20;;;2.90;;
10463;SDS011;5279;42.048;24.638;2023-08-21T07:06:36;3.55;;;2.90;;
10463;SDS011;5279;42.048;24.638;2023-08-21T07:09:03;3.20;;;2.90;;
10463;SDS011;5279;42.048;24.638;2023-08-21T07:11:30;3.65;;;3.28;;
10463;SDS011;5279;42.048;24.638;2023-08-21T07:13:57;5.80;;;3.03;;
10463;SDS011;5279;42.048;24.638;2023-08-21T07:16:24;3.70;;;3.10;;
10463;SDS011;5279;42.048;24.638;2023-08-21T07:18:52;3.58;;;3.15;;
10463;SDS011;5279;42.048;24.638;2023-08-21T07:21:19;3.40;;;3.05;;
10463;SDS011;5279;42.048;24.638;2023-08-21T07:23:48;3.13;;;2.85;;
10463;SDS011;5279;42.048;24.638;2023-08-21T07:26:15;2.97;;;2.78;;
10463;SDS011;5279;42.048;24.638;2023-08-21T07:28:42;4.22;;;3.08;;
10463;SDS011;5279;42.048;24.638;2023-08-21T07:31:10;3.22;;;3.00;;
10463;SDS011;5279;42.048;24.638;2023-08-21T07:33:37;6.38;;;2.90;;
10463;SDS011;5279;42.048;24.638;2023-08-21T07:36:04;3.67;;;2.97;;
10463;SDS011;5279;42.048;24.638;2023-08-21T07:38:33;3.20;;;2.85;;
10463;SDS011;5279;42.048;24.638;2023-08-21T07:41:06;6.80;;;2.85;;
10463;SDS011;5279;42.048;24.638;2023-08-21T07:43:35;3.35;;;2.80;;
10463;SDS011;5279;42.048;24.638;2023-08-21T07:46:03;3.00;;;2.72;;
10463;SDS011;5279;42.048;24.638;2023-08-21T07:48:30;6.90;;;2.70;;
10463;SDS011;5279;42.048;24.638;2023-08-21T07:50:58;6.53;;;2.60;;
10463;SDS011;5279;42.048;24.638;2023-08-21T07:53:25;5.43;;;2.35;;
10463;SDS011;5279;42.048;24.638;2023-08-21T07:55:53;9.55;;;2.50;;
10463;SDS011;5279;42.048;24.638;2023-08-21T07:58:21;7.68;;;2.78;;
10463;SDS011;5279;42.048;24.638;2023-08-21T08:00:49;5.65;;;2.80;;
10463;SDS011;5279;42.048;24.638;2023-08-21T08:03:15;2.90;;;2.53;;
10463;SDS011;5279;42.048;24.638;2023-08-21T08:05:43;5.25;;;2.40;;
10463;SDS011;5279;42.048;24.638;2023-08-21T08:08:10;4.40;;;2.65;;
10463;SDS011;5279;42.048;24.638;2023-08-21T08:10:37;6.82;;;2.92;;
10463;SDS011;5279;42.048;24.638;2023-08-21T08:13:05;5.25;;;2.80;;
10463;SDS011;5279;42.048;24.638;2023-08-21T08:15:34;3.15;;;2.63;;
10463;SDS011;5279;42.048;24.638;2023-08-21T08:18:02;2.40;;;2.20;;
10463;SDS011;5279;42.048;24.638;2023-08-21T08:20:29;3.72;;;2.63;;
10463;SDS011;5279;42.048;24.638;2023-08-21T08:22:57;4.53;;;2.90;;
10463;SDS011;5279;42.048;24.638;2023-08-21T08:25:24;5.13;;;3.10;;
10463;SDS011;5279;42.048;24.638;2023-08-21T08:27:51;3.78;;;3.03;;
10463;SDS011;5279;42.048;24.638;2023-08-21T08:30:18;2.70;;;2.50;;
10463;SDS011;5279;42.048;24.638;2023-08-21T08:32:47;5.50;;;2.67;;
10463;SDS011;5279;42.048;24.638;2023-08-21T08:35:15;2.67;;;2.47;;
10463;SDS011;5279;42.048;24.638;2023-08-21T08:37:42;3.92;;;2.70;;
10463;SDS011;5279;42.048;24.638;2023-08-21T08:40:10;4.63;;;2.60;;
10463;SDS011;5279;42.048;24.638;2023-08-21T08:42:37;3.45;;;2.92;;
10463;SDS011;5279;42.048;24.638;2023-08-21T08:45:06;3.15;;;2.67;;
10463;SDS011;5279;42.048;24.638;2023-08-21T08:47:34;4.63;;;3.15;;
10463;SDS011;5279;42.048;24.638;2023-08-21T08:50:04;3.67;;;3.00;;
10463;SDS011;5279;42.048;24.638;2023-08-21T08:52:34;3.92;;;2.85;;
10463;SDS011;5279;42.048;24.638;2023-08-21T08:55:02;8.20;;;3.10;;
10463;SDS011;5279;42.048;24.638;2023-08-21T08:57:31;4.45;;;2.83;;
10463;SDS011;5279;42.048;24.638;2023-08-21T08:59:59;9.85;;;2.85;;
10463;SDS011;5279;42.048;24.638;2023-08-21T09:02:26;2.90;;;2.67;;
10463;SDS011;5279;42.048;24.638;2023-08-21T09:04:54;5.38;;;3.15;;
10463;SDS011;5279;42.048;24.638;2023-08-21T09:07:22;3.00;;;2.80;;
10463;SDS011;5279;42.048;24.638;2023-08-21T09:09:50;4.75;;;2.67;;
10463;SDS011;5279;42.048;24.638;2023-08-21T09:12:18;3.55;;;3.03;;
10463;SDS011;5279;42.048;24.638;2023-08-21T09:14:46;3.80;;;2.60;;
10463;SDS011;5279;42.048;24.638;2023-08-21T09:17:14;3.53;;;2.90;;
10463;SDS011;5279;42.048;24.638;2023-08-21T09:19:42;3.80;;;2.80;;
10463;SDS011;5279;42.048;24.638;2023-08-21T09:22:09;4.07;;;2.90;;
10463;SDS011;5279;42.048;24.638;2023-08-21T09:27:37;2.90;;;2.70;;
10463;SDS011;5279;42.048;24.638;2023-08-21T09:30:06;5.05;;;3.00;;
10463;SDS011;5279;42.048;24.638;2023-08-21T09:32:37;4.35;;;2.75;;
10463;SDS011;5279;42.048;24.638;2023-08-21T09:35:19;3.10;;;2.78;;
10463;SDS011;5279;42.048;24.638;2023-08-21T09:37:47;3.38;;;3.15;;
10463;SDS011;5279;42.048;24.638;2023-08-21T09:40:16;8.98;;;3.30;;
10463;SDS011;5279;42.048;24.638;2023-08-21T09:42:43;4.07;;;3.40;;
10463;SDS011;5279;42.048;24.638;2023-08-21T09:45:11;3.08;;;2.88;;
10463;SDS011;5279;42.048;24.638;2023-08-21T09:47:38;3.15;;;2.85;;
10463;SDS011;5279;42.048;24.638;2023-08-21T09:50:06;4.25;;;2.70;;
10463;SDS011;5279;42.048;24.638;2023-08-21T09:52:34;6.03;;;3.13;;
10463;SDS011;5279;42.048;24.638;2023-08-21T09:55:02;3.00;;;2.65;;
10463;SDS011;5279;42.048;24.638;2023-08-21T09:57:33;4.13;;;2.70;;
10463;SDS011;5279;42.048;24.638;2023-08-21T10:00:02;2.53;;;2.33;;
10463;SDS011;5279;42.048;24.638;2023-08-21T10:02:42;3.65;;;2.80;;
10463;SDS011;5279;42.048;24.638;2023-08-21T10:05:13;3.22;;;2.90;;
10463;SDS011;5279;42.048;24.638;2023-08-21T10:07:42;3.58;;;2.80;;
10463;SDS011;5279;42.048;24.638;2023-08-21T10:10:10;3.63;;;2.97;;
10463;SDS011;5279;42.048;24.638;2023-08-21T10:12:40;2.92;;;2.72;;
10463;SDS011;5279;42.048;24.638;2023-08-21T10:15:07;3.28;;;2.55;;
10463;SDS011;5279;42.048;24.638;2023-08-21T10:17:36;3.40;;;2.83;;
10463;SDS011;5279;42.048;24.638;2023-08-21T10:20:04;5.88;;;2.67;;
10463;SDS011;5279;42.048;24.638;2023-08-21T10:22:37;3.35;;;2.78;;
10463;SDS011;5279;42.048;24.638;2023-08-21T10:25:13;3.75;;;3.00;;
10463;SDS011;5279;42.048;24.638;2023-08-21T10:27:43;2.90;;;2.70;;
10463;SDS011;5279;42.048;24.638;2023-08-21T10:30:13;4.45;;;2.75;;
10463;SDS011;5279;42.048;24.638;2023-08-21T10:32:44;3.30;;;2.40;;
10463;SDS011;5279;42.048;24.638;2023-08-21T10:35:15;6.57;;;2.80;;
10463;SDS011;5279;42.048;24.638;2023-08-21T10:40:41;4.70;;;3.15;;
10463;SDS011;5279;42.048;24.638;2023-08-21T10:43:39;3.33;;;2.72;;
10463;SDS011;5279;42.048;24.638;2023-08-21T10:46:08;2.67;;;2.47;;
10463;SDS011;5279;42.048;24.638;2023-08-21T10:48:36;3.13;;;2.67;;
10463;SDS011;5279;42.048;24.638;2023-08-21T10:51:04;4.47;;;2.83;;
10463;SDS011;5279;42.048;24.638;2023-08-21T10:53:32;4.85;;;3.10;;
10463;SDS011;5279;42.048;24.638;2023-08-21T10:56:03;3.30;;;2.88;;
10463;SDS011;5279;42.048;24.638;2023-08-21T10:58:34;12.23;;;4.10;;
10463;SDS011;5279;42.048;24.638;2023-08-21T11:01:02;15.70;;;5.13;;
10463;SDS011;5279;42.048;24.638;2023-08-21T11:03:29;11.10;;;4.60;;
10463;SDS011;5279;42.048;24.638;2023-08-21T11:06:00;12.40;;;4.95;;
10463;SDS011;5279;42.048;24.638;2023-08-21T11:08:29;13.50;;;4.72;;
10463;SDS011;5279;42.048;24.638;2023-08-21T11:10:58;7.45;;;4.47;;
10463;SDS011;5279;42.048;24.638;2023-08-21T11:13:25;7.35;;;4.80;;
10463;SDS011;5279;42.048;24.638;2023-08-21T11:15:58;11.13;;;5.25;;
10463;SDS011;5279;42.048;24.638;2023-08-21T11:18:31;7.43;;;4.40;;
10463;SDS011;5279;42.048;24.638;2023-08-21T11:21:06;8.50;;;4.78;;
10463;SDS011;5279;42.048;24.638;2023-08-21T11:23:35;4.97;;;4.35;;
10463;SDS011;5279;42.048;24.638;2023-08-21T11:26:03;5.80;;;4.35;;
10463;SDS011;5279;42.048;24.638;2023-08-21T11:28:31;4.82;;;3.95;;
10463;SDS011;5279;42.048;24.638;2023-08-21T11:30:59;6.60;;;4.10;;
10463;SDS011;5279;42.048;24.638;2023-08-21T11:33:26;4.53;;;4.13;;
10463;SDS011;5279;42.048;24.638;2023-08-21T11:35:56;6.38;;;4.00;;
10463;SDS011;5279;42.048;24.638;2023-08-21T11:38:24;7.18;;;4.28;;
10463;SDS011;5279;42.048;24.638;2023-08-21T11:40:53;6.50;;;4.18;;
10463;SDS011;5279;42.048;24.638;2023-08-21T11:43:21;6.23;;;4.00;;
10463;SDS011;5279;42.048;24.638;2023-08-21T11:45:48;5.40;;;3.85;;
10463;SDS011;5279;42.048;24.638;2023-08-21T11:48:18;5.20;;;4.00;;
10463;SDS011;5279;42.048;24.638;2023-08-21T11:50:47;5.90;;;3.75;;
10463;SDS011;5279;42.048;24.638;2023-08-21T11:53:30;5.13;;;3.53;;
10463;SDS011;5279;42.048;24.638;2023-08-21T11:55:58;7.40;;;3.80;;
10463;SDS011;5279;42.048;24.638;2023-08-21T11:58:26;4.55;;;4.10;;
10463;SDS011;5279;42.048;24.638;2023-08-21T12:00:53;4.72;;;3.47;;
10463;SDS011;5279;42.048;24.638;2023-08-21T12:03:20;3.72;;;3.42;;
10463;SDS011;5279;42.048;24.638;2023-08-21T12:05:47;5.80;;;3.22;;
10463;SDS011;5279;42.048;24.638;2023-08-21T12:08:15;4.05;;;3.60;;
10463;SDS011;5279;42.048;24.638;2023-08-21T12:10:43;5.47;;;3.40;;
10463;SDS011;5279;42.048;24.638;2023-08-21T12:13:17;5.00;;;3.40;;
10463;SDS011;5279;42.048;24.638;2023-08-21T12:15:44;5.15;;;3.17;;
10463;SDS011;5279;42.048;24.638;2023-08-21T12:18:12;5.35;;;3.05;;
10463;SDS011;5279;42.048;24.638;2023-08-21T12:20:39;3.42;;;3.13;;
10463;SDS011;5279;42.048;24.638;2023-08-21T12:23:06;4.57;;;2.88;;
10463;SDS011;5279;42.048;24.638;2023-08-21T12:25:33;3.00;;;2.75;;
10463;SDS011;5279;42.048;24.638;2023-08-21T12:28:02;3.22;;;2.83;;
10463;SDS011;5279;42.048;24.638;2023-08-21T12:30:30;4.45;;;3.00;;
10463;SDS011;5279;42.048;24.638;2023-08-21T12:32:57;4.05;;;3.05;;
10463;SDS011;5279;42.048;24.638;2023-08-21T12:35:24;3.50;;;2.92;;
10463;SDS011;5279;42.048;24.638;2023-08-21T12:37:55;4.72;;;2.50;;
10463;SDS011;5279;42.048;24.638;2023-08-21T12:40:24;4.05;;;2.53;;
10463;SDS011;5279;42.048;24.638;2023-08-21T12:42:51;2.50;;;2.30;;
10463;SDS011;5279;42.048;24.638;2023-08-21T12:45:20;6.65;;;2.47;;
10463;SDS011;5279;42.048;24.638;2023-08-21T12:47:47;4.03;;;2.45;;
10463;SDS011;5279;42.048;24.638;2023-08-21T12:50:14;3.10;;;2.72;;
10463;SDS011;5279;42.048;24.638;2023-08-21T12:52:42;3.88;;;2.72;;
10463;SDS011;5279;42.048;24.638;2023-08-21T12:55:09;3.25;;;2.50;;
10463;SDS011;5279;42.048;24.638;2023-08-21T12:57:36;3.80;;;2.60;;
10463;SDS011;5279;42.048;24.638;2023-08-21T13:00:04;2.88;;;2.40;;
10463;SDS011;5279;42.048;24.638;2023-08-21T13:02:33;5.18;;;2.90;;
10463;SDS011;5279;42.048;24.638;2023-08-21T13:05:00;4.15;;;2.85;;
10463;SDS011;5279;42.048;24.638;2023-08-21T13:07:28;4.97;;;2.47;;
10463;SDS011;5279;42.048;24.638;2023-08-21T13:09:55;4.78;;;3.25;;
10463;SDS011;5279;42.048;24.638;2023-08-21T13:12:24;4.22;;;3.03;;
10463;SDS011;5279;42.048;24.638;2023-08-21T13:14:51;5.45;;;3.22;;
10463;SDS011;5279;42.048;24.638;2023-08-21T13:17:18;3.45;;;2.85;;
10463;SDS011;5279;42.048;24.638;2023-08-21T13:19:47;13.30;;;3.53;;
10463;SDS011;5279;42.048;24.638;2023-08-21T13:22:16;3.80;;;2.85;;
10463;SDS011;5279;42.048;24.638;2023-08-21T13:24:43;5.80;;;3.20;;
10463;SDS011;5279;42.048;24.638;2023-08-21T13:27:11;3.50;;;2.90;;
10463;SDS011;5279;42.048;24.638;2023-08-21T13:29:38;4.07;;;3.20;;
10463;SDS011;5279;42.048;24.638;2023-08-21T13:32:05;6.00;;;3.40;;
10463;SDS011;5279;42.048;24.638;2023-08-21T13:34:32;5.97;;;3.22;;
10463;SDS011;5279;42.048;24.638;2023-08-21T13:37:01;3.90;;;3.47;;
10463;SDS011;5279;42.048;24.638;2023-08-21T13:39:29;3.55;;;2.95;;
10463;SDS011;5279;42.048;24.638;2023-08-21T13:41:56;3.88;;;2.90;;
10463;SDS011;5279;42.048;24.638;2023-08-21T13:44:23;4.15;;;3.28;;
10463;SDS011;5279;42.048;24.638;2023-08-21T13:46:50;2.92;;;2.72;;
10463;SDS011;5279;42.048;24.638;2023-08-21T13:49:32;5.65;;;2.58;;
10463;SDS011;5279;42.048;24.638;2023-08-21T13:52:02;3.15;;;2.95;;
10463;SDS011;5279;42.048;24.638;2023-08-21T13:54:30;5.32;;;3.08;;
10463;SDS011;5279;42.048;24.638;2023-08-21T13:56:57;7.10;;;3.10;;
10463;SDS011;5279;42.048;24.638;2023-08-21T13:59:25;3.50;;;3.10;;
10463;SDS011;5279;42.048;24.638;2023-08-21T14:01:52;5.68;;;3.33;;
10463;SDS011;5279;42.048;24.638;2023-08-21T14:04:19;3.20;;;2.83;;
10463;SDS011;5279;42.048;24.638;2023-08-21T14:06:46;3.63;;;3.20;;
10463;SDS011;5279;42.048;24.638;2023-08-21T14:09:14;5.20;;;3.25;;
10463;SDS011;5279;42.048;24.638;2023-08-21T14:11:41;8.43;;;3.17;;
10463;SDS011;5279;42.048;24.638;2023-08-21T14:14:08;10.15;;;3.40;;
10463;SDS011;5279;42.048;24.638;2023-08-21T14:16:35;3.67;;;3.38;;
10463;SDS011;5279;42.048;24.638;2023-08-21T14:19:03;3.63;;;3.33;;
10463;SDS011;5279;42.048;24.638;2023-08-21T14:21:30;5.30;;;3.58;;
10463;SDS011;5279;42.048;24.638;2023-08-21T14:23:57;7.63;;;3.60;;
10463;SDS011;5279;42.048;24.638;2023-08-21T14:26:25;8.57;;;4.22;;
10463;SDS011;5279;42.048;24.638;2023-08-21T14:28:52;5.38;;;3.72;;
10463;SDS011;5279;42.048;24.638;2023-08-21T14:31:20;4.68;;;3.80;;
10463;SDS011;5279;42.048;24.638;2023-08-21T14:33:47;10.32;;;4.10;;
10463;SDS011;5279;42.048;24.638;2023-08-21T14:36:15;5.40;;;4.10;;
10463;SDS011;5279;42.048;24.638;2023-08-21T14:38:42;5.13;;;3.92;;
10463;SDS011;5279;42.048;24.638;2023-08-21T14:41:09;5.72;;;3.65;;
10463;SDS011;5279;42.048;24.638;2023-08-21T14:43:38;7.30;;;3.92;;
10463;SDS011;5279;42.048;24.638;2023-08-21T14:46:05;6.63;;;3.95;;
10463;SDS011;5279;42.048;24.638;2023-08-21T14:48:32;5.22;;;4.15;;
10463;SDS011;5279;42.048;24.638;2023-08-21T14:50:59;3.70;;;3.40;;
10463;SDS011;5279;42.048;24.638;2023-08-21T14:53:26;4.53;;;3.85;;
10463;SDS011;5279;42.048;24.638;2023-08-21T14:55:53;4.32;;;3.90;;
10463;SDS011;5279;42.048;24.638;2023-08-21T14:58:20;6.50;;;3.72;;
10463;SDS011;5279;42.048;24.638;2023-08-21T15:00:49;7.85;;;4.07;;